الصفحة الرئيسية
METAR-TAF:

METAR-TAF

مطار :

فور دو فرانس, مارتينيك

دائرة عرض: 14-36N, خط طول: 061-00W, ارتفاع: 5 متر

مراقبة الطقس الحالي

تاريخ ووقت الإصدار 15 دقيقة قبل الساعة 06:30UTC
ريح 6 عقدة من الشرق
درجة الحرارة 26°درجة مئوية
الرطوبة 84%
ضغط 1016 hPa
الرؤية 10 كم أو أكثر

METAR: TFFF 160630Z AUTO 09006KT 9999 NCD 26/23 Q1016 NOSIG

زمن: 02:45 (06:45 UTC)

توقعات

تاريخ ووقت الإصدار 2ساعات و 45 دقيقة قبل الساعة 04:00UTC
التوقعات صالحة من16 الساعة 06 UTC إلى 17 الساعة 06 UTC
ريح 10 عقدة من الشرق
الرؤية 10 كم أو أكثر
غيوم قليلة على ارتفاع 2600 قدم
مؤقت
من 16 الساعة 09 UTC إلى 16 الساعة 18 UTC
الرؤية: 4000 متر
غيوم مفككة على ارتفاع 1800 قدم, مزن ركامية عمودية.
زخات من المطر

TAF: TFFF 160400Z 1606/1706 10010KT 9999 FEW026 TEMPO 1609/1618 4000 SHRA BKN018TCU

أرصاد الطقس والتوقعات من أكثر من 4000 مطار (تقارير الطقس للمطار METAR والتنبؤ بالطقس بالمطارTAF).

المحطات المتاحة هي النقط الصفراء والحمراء على الخريطة.

حرك المؤشر فوق النقطة لمعرفة اسم المحطة.

ثم انقر لمعرفة أرصاد وتوقعات الطقس.

لتغيير الخارطة: اضغط على الأزرار الخضراء مع رمز الصليب الأسود للتكبير. على الزر الأخضر مع شرطة للتصغير، أو على الأسهم الخضراء للخرائط المجاورة.


METAR-TAF: